sensor_id;sensor_type;location;lat;lon;timestamp;P1;durP1;ratioP1;P2;durP2;ratioP2
6386;SDS011;3226;42.162;24.756;2022-11-06T00:00:09;6.83;;;6.53;;
6386;SDS011;3226;42.162;24.756;2022-11-06T00:02:38;6.43;;;6.13;;
6386;SDS011;3226;42.162;24.756;2022-11-06T00:05:06;6.40;;;6.10;;
6386;SDS011;3226;42.162;24.756;2022-11-06T00:07:52;6.57;;;6.27;;
6386;SDS011;3226;42.162;24.756;2022-11-06T00:10:20;7.27;;;6.97;;
6386;SDS011;3226;42.162;24.756;2022-11-06T00:12:50;6.97;;;6.67;;
6386;SDS011;3226;42.162;24.756;2022-11-06T00:15:18;7.40;;;6.90;;
6386;SDS011;3226;42.162;24.756;2022-11-06T00:17:47;6.20;;;5.97;;
6386;SDS011;3226;42.162;24.756;2022-11-06T00:20:15;6.27;;;6.00;;
6386;SDS011;3226;42.162;24.756;2022-11-06T00:22:45;6.57;;;6.27;;
6386;SDS011;3226;42.162;24.756;2022-11-06T00:25:13;6.53;;;6.23;;
6386;SDS011;3226;42.162;24.756;2022-11-06T00:27:41;6.13;;;5.90;;
6386;SDS011;3226;42.162;24.756;2022-11-06T00:30:11;6.73;;;6.43;;
6386;SDS011;3226;42.162;24.756;2022-11-06T00:32:41;6.53;;;6.23;;
6386;SDS011;3226;42.162;24.756;2022-11-06T00:35:09;6.67;;;6.37;;
6386;SDS011;3226;42.162;24.756;2022-11-06T00:37:37;6.70;;;6.40;;
6386;SDS011;3226;42.162;24.756;2022-11-06T00:40:05;7.47;;;7.17;;
6386;SDS011;3226;42.162;24.756;2022-11-06T00:42:34;5.97;;;5.77;;
6386;SDS011;3226;42.162;24.756;2022-11-06T00:45:02;5.97;;;5.77;;
6386;SDS011;3226;42.162;24.756;2022-11-06T00:47:32;6.83;;;6.53;;
6386;SDS011;3226;42.162;24.756;2022-11-06T00:50:00;7.83;;;7.53;;
6386;SDS011;3226;42.162;24.756;2022-11-06T00:52:28;7.77;;;7.47;;
6386;SDS011;3226;42.162;24.756;2022-11-06T00:54:56;7.03;;;6.73;;
6386;SDS011;3226;42.162;24.756;2022-11-06T00:57:24;6.80;;;6.50;;
6386;SDS011;3226;42.162;24.756;2022-11-06T00:59:52;7.00;;;6.70;;
6386;SDS011;3226;42.162;24.756;2022-11-06T01:02:20;6.77;;;6.47;;
6386;SDS011;3226;42.162;24.756;2022-11-06T01:04:49;6.60;;;6.30;;
6386;SDS011;3226;42.162;24.756;2022-11-06T01:07:17;7.23;;;6.93;;
6386;SDS011;3226;42.162;24.756;2022-11-06T01:09:45;6.80;;;6.50;;
6386;SDS011;3226;42.162;24.756;2022-11-06T01:12:13;5.73;;;5.53;;
6386;SDS011;3226;42.162;24.756;2022-11-06T01:14:41;6.47;;;6.17;;
6386;SDS011;3226;42.162;24.756;2022-11-06T01:17:10;6.00;;;5.80;;
6386;SDS011;3226;42.162;24.756;2022-11-06T01:19:39;6.57;;;6.27;;
6386;SDS011;3226;42.162;24.756;2022-11-06T01:22:08;5.90;;;5.70;;
6386;SDS011;3226;42.162;24.756;2022-11-06T01:24:36;6.00;;;5.80;;
6386;SDS011;3226;42.162;24.756;2022-11-06T01:27:04;6.37;;;6.07;;
6386;SDS011;3226;42.162;24.756;2022-11-06T01:29:52;7.03;;;6.63;;
6386;SDS011;3226;42.162;24.756;2022-11-06T01:32:21;6.00;;;5.80;;
6386;SDS011;3226;42.162;24.756;2022-11-06T01:34:49;6.10;;;5.90;;
6386;SDS011;3226;42.162;24.756;2022-11-06T01:37:18;7.90;;;7.23;;
6386;SDS011;3226;42.162;24.756;2022-11-06T01:39:47;7.73;;;7.43;;
6386;SDS011;3226;42.162;24.756;2022-11-06T01:42:17;7.93;;;7.63;;
6386;SDS011;3226;42.162;24.756;2022-11-06T01:47:52;7.70;;;7.30;;
6386;SDS011;3226;42.162;24.756;2022-11-06T01:50:20;7.50;;;7.20;;
6386;SDS011;3226;42.162;24.756;2022-11-06T01:52:50;8.20;;;7.90;;
6386;SDS011;3226;42.162;24.756;2022-11-06T01:55:20;6.80;;;6.50;;
6386;SDS011;3226;42.162;24.756;2022-11-06T01:57:52;6.80;;;6.50;;
6386;SDS011;3226;42.162;24.756;2022-11-06T02:00:21;9.97;;;9.47;;
6386;SDS011;3226;42.162;24.756;2022-11-06T02:02:50;8.00;;;7.70;;
6386;SDS011;3226;42.162;24.756;2022-11-06T02:05:18;8.63;;;8.23;;
6386;SDS011;3226;42.162;24.756;2022-11-06T02:07:46;8.07;;;7.67;;
6386;SDS011;3226;42.162;24.756;2022-11-06T02:10:16;7.87;;;7.57;;
6386;SDS011;3226;42.162;24.756;2022-11-06T02:12:50;7.93;;;7.63;;
6386;SDS011;3226;42.162;24.756;2022-11-06T02:15:26;7.83;;;7.47;;
6386;SDS011;3226;42.162;24.756;2022-11-06T02:18:12;7.23;;;6.93;;
6386;SDS011;3226;42.162;24.756;2022-11-06T02:20:47;6.77;;;6.47;;
6386;SDS011;3226;42.162;24.756;2022-11-06T02:23:33;6.40;;;6.10;;
6386;SDS011;3226;42.162;24.756;2022-11-06T02:26:16;6.40;;;6.10;;
6386;SDS011;3226;42.162;24.756;2022-11-06T02:28:57;7.40;;;7.10;;
6386;SDS011;3226;42.162;24.756;2022-11-06T02:31:30;6.23;;;6.00;;
6386;SDS011;3226;42.162;24.756;2022-11-06T02:34:03;8.23;;;7.83;;
6386;SDS011;3226;42.162;24.756;2022-11-06T02:36:37;7.00;;;6.70;;
6386;SDS011;3226;42.162;24.756;2022-11-06T02:39:10;7.53;;;7.03;;
6386;SDS011;3226;42.162;24.756;2022-11-06T02:41:42;6.07;;;5.83;;
6386;SDS011;3226;42.162;24.756;2022-11-06T02:44:14;7.87;;;7.47;;
6386;SDS011;3226;42.162;24.756;2022-11-06T02:46:48;6.80;;;6.50;;
6386;SDS011;3226;42.162;24.756;2022-11-06T02:49:21;7.43;;;6.73;;
6386;SDS011;3226;42.162;24.756;2022-11-06T02:51:55;7.60;;;7.30;;
6386;SDS011;3226;42.162;24.756;2022-11-06T02:54:26;6.83;;;6.53;;
6386;SDS011;3226;42.162;24.756;2022-11-06T02:56:58;8.03;;;7.73;;
6386;SDS011;3226;42.162;24.756;2022-11-06T02:59:32;6.63;;;6.33;;
6386;SDS011;3226;42.162;24.756;2022-11-06T03:02:07;6.17;;;5.97;;
6386;SDS011;3226;42.162;24.756;2022-11-06T03:04:43;7.57;;;7.27;;
6386;SDS011;3226;42.162;24.756;2022-11-06T03:07:14;8.00;;;7.50;;
6386;SDS011;3226;42.162;24.756;2022-11-06T03:09:48;6.70;;;6.40;;
6386;SDS011;3226;42.162;24.756;2022-11-06T03:12:18;7.80;;;7.40;;
6386;SDS011;3226;42.162;24.756;2022-11-06T03:14:54;6.53;;;6.23;;
6386;SDS011;3226;42.162;24.756;2022-11-06T03:17:28;6.10;;;5.90;;
6386;SDS011;3226;42.162;24.756;2022-11-06T03:20:03;6.77;;;6.47;;
6386;SDS011;3226;42.162;24.756;2022-11-06T03:22:40;7.13;;;6.83;;
6386;SDS011;3226;42.162;24.756;2022-11-06T03:25:16;6.03;;;5.77;;
6386;SDS011;3226;42.162;24.756;2022-11-06T03:27:48;6.73;;;6.43;;
6386;SDS011;3226;42.162;24.756;2022-11-06T03:30:25;7.03;;;6.73;;
6386;SDS011;3226;42.162;24.756;2022-11-06T03:32:54;7.17;;;6.87;;
6386;SDS011;3226;42.162;24.756;2022-11-06T03:35:26;6.87;;;6.57;;
6386;SDS011;3226;42.162;24.756;2022-11-06T03:37:58;8.00;;;7.60;;
6386;SDS011;3226;42.162;24.756;2022-11-06T03:40:30;7.90;;;7.50;;
6386;SDS011;3226;42.162;24.756;2022-11-06T03:43:03;7.20;;;6.80;;
6386;SDS011;3226;42.162;24.756;2022-11-06T03:45:37;7.03;;;6.73;;
6386;SDS011;3226;42.162;24.756;2022-11-06T03:48:08;6.93;;;6.63;;
6386;SDS011;3226;42.162;24.756;2022-11-06T03:50:43;6.63;;;6.33;;
6386;SDS011;3226;42.162;24.756;2022-11-06T03:53:19;6.73;;;6.43;;
6386;SDS011;3226;42.162;24.756;2022-11-06T03:55:50;7.37;;;7.07;;
6386;SDS011;3226;42.162;24.756;2022-11-06T03:58:22;7.47;;;7.17;;
6386;SDS011;3226;42.162;24.756;2022-11-06T04:00:55;6.20;;;5.97;;
6386;SDS011;3226;42.162;24.756;2022-11-06T04:03:27;6.97;;;6.67;;
6386;SDS011;3226;42.162;24.756;2022-11-06T04:05:59;7.23;;;6.93;;
6386;SDS011;3226;42.162;24.756;2022-11-06T04:08:32;6.80;;;6.50;;
6386;SDS011;3226;42.162;24.756;2022-11-06T04:11:19;7.53;;;7.13;;
6386;SDS011;3226;42.162;24.756;2022-11-06T04:14:08;6.90;;;6.60;;
6386;SDS011;3226;42.162;24.756;2022-11-06T04:16:40;6.57;;;6.27;;
6386;SDS011;3226;42.162;24.756;2022-11-06T04:19:13;6.83;;;6.53;;
6386;SDS011;3226;42.162;24.756;2022-11-06T04:21:47;6.97;;;6.67;;
6386;SDS011;3226;42.162;24.756;2022-11-06T04:24:25;6.17;;;5.87;;
6386;SDS011;3226;42.162;24.756;2022-11-06T04:27:29;7.17;;;6.77;;
6386;SDS011;3226;42.162;24.756;2022-11-06T04:30:06;7.10;;;6.80;;
6386;SDS011;3226;42.162;24.756;2022-11-06T04:32:43;7.57;;;7.27;;
6386;SDS011;3226;42.162;24.756;2022-11-06T04:35:27;6.93;;;6.63;;
6386;SDS011;3226;42.162;24.756;2022-11-06T04:38:01;7.30;;;7.00;;
6386;SDS011;3226;42.162;24.756;2022-11-06T04:40:36;6.67;;;6.37;;
6386;SDS011;3226;42.162;24.756;2022-11-06T04:43:12;7.00;;;6.70;;
6386;SDS011;3226;42.162;24.756;2022-11-06T04:45:46;7.57;;;7.27;;
6386;SDS011;3226;42.162;24.756;2022-11-06T04:48:19;6.77;;;6.47;;
6386;SDS011;3226;42.162;24.756;2022-11-06T04:50:50;7.30;;;7.00;;
6386;SDS011;3226;42.162;24.756;2022-11-06T04:53:21;6.73;;;6.43;;
6386;SDS011;3226;42.162;24.756;2022-11-06T04:55:51;6.53;;;6.23;;
6386;SDS011;3226;42.162;24.756;2022-11-06T04:58:21;5.20;;;5.00;;
6386;SDS011;3226;42.162;24.756;2022-11-06T05:00:49;6.73;;;6.43;;
6386;SDS011;3226;42.162;24.756;2022-11-06T05:03:17;6.90;;;6.40;;
6386;SDS011;3226;42.162;24.756;2022-11-06T05:05:47;5.90;;;5.70;;
6386;SDS011;3226;42.162;24.756;2022-11-06T05:08:16;6.03;;;5.83;;
6386;SDS011;3226;42.162;24.756;2022-11-06T05:10:45;6.00;;;5.80;;
6386;SDS011;3226;42.162;24.756;2022-11-06T05:13:14;5.67;;;5.47;;
6386;SDS011;3226;42.162;24.756;2022-11-06T05:15:42;6.63;;;6.33;;
6386;SDS011;3226;42.162;24.756;2022-11-06T05:18:10;7.50;;;6.90;;
6386;SDS011;3226;42.162;24.756;2022-11-06T05:20:40;7.20;;;6.80;;
6386;SDS011;3226;42.162;24.756;2022-11-06T05:23:08;6.03;;;5.83;;
6386;SDS011;3226;42.162;24.756;2022-11-06T05:25:35;6.00;;;5.80;;
6386;SDS011;3226;42.162;24.756;2022-11-06T05:28:06;6.33;;;6.03;;
6386;SDS011;3226;42.162;24.756;2022-11-06T05:30:35;5.77;;;5.57;;
6386;SDS011;3226;42.162;24.756;2022-11-06T05:33:03;7.10;;;6.80;;
6386;SDS011;3226;42.162;24.756;2022-11-06T05:35:31;8.40;;;8.00;;
6386;SDS011;3226;42.162;24.756;2022-11-06T05:38:01;6.67;;;6.37;;
6386;SDS011;3226;42.162;24.756;2022-11-06T05:40:29;6.73;;;6.43;;
6386;SDS011;3226;42.162;24.756;2022-11-06T05:42:57;5.80;;;5.60;;
6386;SDS011;3226;42.162;24.756;2022-11-06T05:45:25;5.63;;;5.43;;
6386;SDS011;3226;42.162;24.756;2022-11-06T05:47:53;6.00;;;5.80;;
6386;SDS011;3226;42.162;24.756;2022-11-06T05:50:21;5.90;;;5.70;;
6386;SDS011;3226;42.162;24.756;2022-11-06T05:52:49;6.50;;;6.20;;
6386;SDS011;3226;42.162;24.756;2022-11-06T05:55:18;6.60;;;6.30;;
6386;SDS011;3226;42.162;24.756;2022-11-06T05:57:46;7.07;;;6.63;;
6386;SDS011;3226;42.162;24.756;2022-11-06T06:00:14;7.10;;;6.70;;
6386;SDS011;3226;42.162;24.756;2022-11-06T06:02:42;6.87;;;6.57;;
6386;SDS011;3226;42.162;24.756;2022-11-06T06:05:11;5.97;;;5.77;;
6386;SDS011;3226;42.162;24.756;2022-11-06T06:07:39;6.87;;;6.57;;
6386;SDS011;3226;42.162;24.756;2022-11-06T06:10:08;5.90;;;5.60;;
6386;SDS011;3226;42.162;24.756;2022-11-06T06:12:38;5.83;;;5.63;;
6386;SDS011;3226;42.162;24.756;2022-11-06T06:15:06;6.47;;;6.17;;
6386;SDS011;3226;42.162;24.756;2022-11-06T06:17:34;5.97;;;5.77;;
6386;SDS011;3226;42.162;24.756;2022-11-06T06:20:02;7.47;;;7.17;;
6386;SDS011;3226;42.162;24.756;2022-11-06T06:22:31;6.70;;;6.40;;
6386;SDS011;3226;42.162;24.756;2022-11-06T06:24:59;6.97;;;6.67;;
6386;SDS011;3226;42.162;24.756;2022-11-06T06:27:27;6.33;;;6.03;;
6386;SDS011;3226;42.162;24.756;2022-11-06T06:29:57;6.60;;;6.20;;
6386;SDS011;3226;42.162;24.756;2022-11-06T06:32:25;6.17;;;5.97;;
6386;SDS011;3226;42.162;24.756;2022-11-06T06:34:53;6.70;;;6.40;;
6386;SDS011;3226;42.162;24.756;2022-11-06T06:37:21;6.63;;;6.33;;
6386;SDS011;3226;42.162;24.756;2022-11-06T06:39:49;6.17;;;5.93;;
6386;SDS011;3226;42.162;24.756;2022-11-06T06:42:17;6.57;;;6.27;;
6386;SDS011;3226;42.162;24.756;2022-11-06T06:44:45;6.53;;;6.23;;
6386;SDS011;3226;42.162;24.756;2022-11-06T06:47:15;7.13;;;6.83;;
6386;SDS011;3226;42.162;24.756;2022-11-06T06:49:43;6.77;;;6.47;;
6386;SDS011;3226;42.162;24.756;2022-11-06T06:52:12;5.90;;;5.70;;
6386;SDS011;3226;42.162;24.756;2022-11-06T06:54:41;5.53;;;5.33;;
6386;SDS011;3226;42.162;24.756;2022-11-06T06:57:08;6.33;;;6.03;;
6386;SDS011;3226;42.162;24.756;2022-11-06T06:59:37;7.00;;;6.70;;
6386;SDS011;3226;42.162;24.756;2022-11-06T07:02:05;6.07;;;5.87;;
6386;SDS011;3226;42.162;24.756;2022-11-06T07:04:34;6.17;;;5.97;;
6386;SDS011;3226;42.162;24.756;2022-11-06T07:07:02;7.83;;;7.53;;
6386;SDS011;3226;42.162;24.756;2022-11-06T07:09:30;6.60;;;6.30;;
6386;SDS011;3226;42.162;24.756;2022-11-06T07:11:58;6.27;;;6.00;;
6386;SDS011;3226;42.162;24.756;2022-11-06T07:14:26;7.50;;;7.20;;
6386;SDS011;3226;42.162;24.756;2022-11-06T07:16:54;7.23;;;6.93;;
6386;SDS011;3226;42.162;24.756;2022-11-06T07:19:22;6.30;;;6.03;;
6386;SDS011;3226;42.162;24.756;2022-11-06T07:21:51;6.53;;;6.23;;
6386;SDS011;3226;42.162;24.756;2022-11-06T07:24:20;6.97;;;6.63;;
6386;SDS011;3226;42.162;24.756;2022-11-06T07:26:48;6.43;;;6.13;;
6386;SDS011;3226;42.162;24.756;2022-11-06T07:29:16;7.03;;;6.73;;
6386;SDS011;3226;42.162;24.756;2022-11-06T07:31:44;7.17;;;6.87;;
6386;SDS011;3226;42.162;24.756;2022-11-06T07:34:12;6.40;;;6.10;;
6386;SDS011;3226;42.162;24.756;2022-11-06T07:36:41;6.47;;;6.17;;
6386;SDS011;3226;42.162;24.756;2022-11-06T07:39:10;6.37;;;6.07;;
6386;SDS011;3226;42.162;24.756;2022-11-06T07:41:38;6.67;;;6.37;;
6386;SDS011;3226;42.162;24.756;2022-11-06T07:44:06;6.00;;;5.80;;
6386;SDS011;3226;42.162;24.756;2022-11-06T07:46:34;7.70;;;7.17;;
6386;SDS011;3226;42.162;24.756;2022-11-06T07:49:02;6.50;;;6.20;;
6386;SDS011;3226;42.162;24.756;2022-11-06T07:51:30;7.23;;;6.87;;
6386;SDS011;3226;42.162;24.756;2022-11-06T07:53:58;8.10;;;7.80;;
6386;SDS011;3226;42.162;24.756;2022-11-06T07:56:27;9.30;;;8.90;;
6386;SDS011;3226;42.162;24.756;2022-11-06T07:58:55;9.97;;;9.43;;
6386;SDS011;3226;42.162;24.756;2022-11-06T08:01:24;13.30;;;12.70;;
6386;SDS011;3226;42.162;24.756;2022-11-06T08:03:52;12.60;;;12.00;;
6386;SDS011;3226;42.162;24.756;2022-11-06T08:06:20;8.67;;;8.27;;
6386;SDS011;3226;42.162;24.756;2022-11-06T08:08:48;9.63;;;9.23;;
6386;SDS011;3226;42.162;24.756;2022-11-06T08:11:23;8.73;;;8.33;;
6386;SDS011;3226;42.162;24.756;2022-11-06T08:13:54;6.93;;;6.63;;
6386;SDS011;3226;42.162;24.756;2022-11-06T08:16:22;8.27;;;7.83;;
6386;SDS011;3226;42.162;24.756;2022-11-06T08:18:49;7.23;;;6.93;;
6386;SDS011;3226;42.162;24.756;2022-11-06T08:21:17;7.50;;;7.20;;
6386;SDS011;3226;42.162;24.756;2022-11-06T08:23:45;7.00;;;6.70;;
6386;SDS011;3226;42.162;24.756;2022-11-06T08:26:13;6.90;;;6.60;;
6386;SDS011;3226;42.162;24.756;2022-11-06T08:28:42;7.20;;;6.90;;
6386;SDS011;3226;42.162;24.756;2022-11-06T08:31:11;7.53;;;7.23;;
6386;SDS011;3226;42.162;24.756;2022-11-06T08:33:39;7.17;;;6.87;;
6386;SDS011;3226;42.162;24.756;2022-11-06T08:36:08;8.50;;;8.10;;
6386;SDS011;3226;42.162;24.756;2022-11-06T08:38:36;9.13;;;8.73;;
6386;SDS011;3226;42.162;24.756;2022-11-06T08:41:04;8.80;;;8.40;;
6386;SDS011;3226;42.162;24.756;2022-11-06T08:43:33;6.10;;;5.90;;
6386;SDS011;3226;42.162;24.756;2022-11-06T08:46:02;6.97;;;6.67;;
6386;SDS011;3226;42.162;24.756;2022-11-06T08:48:32;8.53;;;8.13;;
6386;SDS011;3226;42.162;24.756;2022-11-06T08:51:00;7.03;;;6.73;;
6386;SDS011;3226;42.162;24.756;2022-11-06T08:53:30;7.97;;;7.67;;
6386;SDS011;3226;42.162;24.756;2022-11-06T08:55:58;7.70;;;7.23;;
6386;SDS011;3226;42.162;24.756;2022-11-06T08:58:26;7.23;;;6.93;;
6386;SDS011;3226;42.162;24.756;2022-11-06T09:00:54;5.67;;;5.47;;
6386;SDS011;3226;42.162;24.756;2022-11-06T09:03:22;6.20;;;6.00;;
6386;SDS011;3226;42.162;24.756;2022-11-06T09:05:51;6.80;;;6.50;;
6386;SDS011;3226;42.162;24.756;2022-11-06T09:08:19;7.40;;;7.10;;
6386;SDS011;3226;42.162;24.756;2022-11-06T09:10:47;7.13;;;6.80;;
6386;SDS011;3226;42.162;24.756;2022-11-06T09:13:21;6.57;;;6.27;;
6386;SDS011;3226;42.162;24.756;2022-11-06T09:15:49;7.40;;;7.10;;
6386;SDS011;3226;42.162;24.756;2022-11-06T09:18:16;7.37;;;7.07;;
6386;SDS011;3226;42.162;24.756;2022-11-06T09:20:44;6.43;;;6.13;;
6386;SDS011;3226;42.162;24.756;2022-11-06T09:23:14;7.90;;;7.60;;
6386;SDS011;3226;42.162;24.756;2022-11-06T09:25:42;8.30;;;7.90;;
6386;SDS011;3226;42.162;24.756;2022-11-06T09:28:10;8.07;;;7.77;;
6386;SDS011;3226;42.162;24.756;2022-11-06T09:30:38;7.70;;;7.40;;
6386;SDS011;3226;42.162;24.756;2022-11-06T09:33:06;7.10;;;6.80;;
6386;SDS011;3226;42.162;24.756;2022-11-06T09:35:39;7.07;;;6.77;;
6386;SDS011;3226;42.162;24.756;2022-11-06T09:38:09;7.50;;;7.20;;
6386;SDS011;3226;42.162;24.756;2022-11-06T09:40:41;8.23;;;7.80;;
6386;SDS011;3226;42.162;24.756;2022-11-06T09:43:18;7.57;;;7.27;;
6386;SDS011;3226;42.162;24.756;2022-11-06T09:46:15;6.07;;;5.87;;
6386;SDS011;3226;42.162;24.756;2022-11-06T09:48:49;6.53;;;6.23;;
6386;SDS011;3226;42.162;24.756;2022-11-06T09:51:26;5.53;;;5.33;;
6386;SDS011;3226;42.162;24.756;2022-11-06T09:54:00;7.00;;;6.70;;
6386;SDS011;3226;42.162;24.756;2022-11-06T09:56:35;6.47;;;6.17;;
6386;SDS011;3226;42.162;24.756;2022-11-06T09:59:09;8.33;;;7.97;;
6386;SDS011;3226;42.162;24.756;2022-11-06T10:01:41;8.93;;;8.47;;
6386;SDS011;3226;42.162;24.756;2022-11-06T10:04:17;7.07;;;6.77;;
6386;SDS011;3226;42.162;24.756;2022-11-06T10:06:53;7.40;;;7.10;;
6386;SDS011;3226;42.162;24.756;2022-11-06T10:09:21;7.77;;;7.47;;
6386;SDS011;3226;42.162;24.756;2022-11-06T10:11:53;7.10;;;6.80;;
6386;SDS011;3226;42.162;24.756;2022-11-06T10:14:33;8.53;;;8.13;;
6386;SDS011;3226;42.162;24.756;2022-11-06T10:17:09;6.70;;;6.40;;
6386;SDS011;3226;42.162;24.756;2022-11-06T10:19:47;6.17;;;5.97;;
6386;SDS011;3226;42.162;24.756;2022-11-06T10:22:20;6.87;;;6.57;;
6386;SDS011;3226;42.162;24.756;2022-11-06T10:24:56;7.03;;;6.73;;
6386;SDS011;3226;42.162;24.756;2022-11-06T10:27:34;6.70;;;6.37;;
6386;SDS011;3226;42.162;24.756;2022-11-06T10:30:08;7.97;;;7.67;;
6386;SDS011;3226;42.162;24.756;2022-11-06T10:32:47;6.63;;;6.37;;
6386;SDS011;3226;42.162;24.756;2022-11-06T10:35:24;7.40;;;7.10;;
6386;SDS011;3226;42.162;24.756;2022-11-06T10:37:58;6.73;;;6.43;;
6386;SDS011;3226;42.162;24.756;2022-11-06T10:40:32;7.63;;;7.33;;
6386;SDS011;3226;42.162;24.756;2022-11-06T10:43:05;7.23;;;6.93;;
6386;SDS011;3226;42.162;24.756;2022-11-06T10:45:42;6.53;;;6.23;;
6386;SDS011;3226;42.162;24.756;2022-11-06T10:48:19;7.23;;;6.93;;
6386;SDS011;3226;42.162;24.756;2022-11-06T10:51:00;6.83;;;6.53;;
6386;SDS011;3226;42.162;24.756;2022-11-06T10:53:44;6.87;;;6.57;;
6386;SDS011;3226;42.162;24.756;2022-11-06T10:56:29;6.77;;;6.47;;
6386;SDS011;3226;42.162;24.756;2022-11-06T10:59:10;6.53;;;6.23;;
6386;SDS011;3226;42.162;24.756;2022-11-06T11:01:39;6.97;;;6.67;;
6386;SDS011;3226;42.162;24.756;2022-11-06T11:04:07;7.67;;;7.37;;
6386;SDS011;3226;42.162;24.756;2022-11-06T11:06:37;7.07;;;6.77;;
6386;SDS011;3226;42.162;24.756;2022-11-06T11:09:24;7.03;;;6.73;;
6386;SDS011;3226;42.162;24.756;2022-11-06T11:11:54;6.93;;;6.63;;
6386;SDS011;3226;42.162;24.756;2022-11-06T11:14:23;7.43;;;7.10;;
6386;SDS011;3226;42.162;24.756;2022-11-06T11:16:53;7.57;;;7.27;;
6386;SDS011;3226;42.162;24.756;2022-11-06T11:19:26;7.30;;;7.00;;
6386;SDS011;3226;42.162;24.756;2022-11-06T11:22:01;6.27;;;6.00;;
6386;SDS011;3226;42.162;24.756;2022-11-06T11:24:31;7.43;;;7.13;;
6386;SDS011;3226;42.162;24.756;2022-11-06T11:27:00;8.10;;;7.70;;
6386;SDS011;3226;42.162;24.756;2022-11-06T11:29:31;9.43;;;8.93;;
6386;SDS011;3226;42.162;24.756;2022-11-06T11:32:04;7.17;;;6.87;;
6386;SDS011;3226;42.162;24.756;2022-11-06T11:34:34;8.33;;;7.93;;
6386;SDS011;3226;42.162;24.756;2022-11-06T11:37:19;7.13;;;6.83;;
6386;SDS011;3226;42.162;24.756;2022-11-06T11:39:51;7.90;;;7.60;;
6386;SDS011;3226;42.162;24.756;2022-11-06T11:42:23;9.53;;;9.03;;
6386;SDS011;3226;42.162;24.756;2022-11-06T11:45:09;7.97;;;7.50;;
6386;SDS011;3226;42.162;24.756;2022-11-06T11:47:40;8.77;;;8.37;;
6386;SDS011;3226;42.162;24.756;2022-11-06T11:50:25;8.70;;;8.30;;
6386;SDS011;3226;42.162;24.756;2022-11-06T11:52:56;7.33;;;7.03;;
6386;SDS011;3226;42.162;24.756;2022-11-06T11:55:36;6.93;;;6.63;;
6386;SDS011;3226;42.162;24.756;2022-11-06T11:58:14;8.07;;;7.70;;
6386;SDS011;3226;42.162;24.756;2022-11-06T12:00:51;8.07;;;7.70;;
6386;SDS011;3226;42.162;24.756;2022-11-06T12:03:21;7.27;;;6.97;;
6386;SDS011;3226;42.162;24.756;2022-11-06T12:05:54;8.23;;;7.83;;
6386;SDS011;3226;42.162;24.756;2022-11-06T12:08:32;10.10;;;9.63;;
6386;SDS011;3226;42.162;24.756;2022-11-06T12:11:01;14.13;;;13.50;;
6386;SDS011;3226;42.162;24.756;2022-11-06T12:13:30;8.77;;;8.38;;
6386;SDS011;3226;42.162;24.756;2022-11-06T12:15:59;8.60;;;8.20;;
6386;SDS011;3226;42.162;24.756;2022-11-06T12:18:32;8.90;;;8.50;;
6386;SDS011;3226;42.162;24.756;2022-11-06T12:21:02;11.77;;;11.27;;
6386;SDS011;3226;42.162;24.756;2022-11-06T12:23:34;8.87;;;8.47;;
6386;SDS011;3226;42.162;24.756;2022-11-06T12:26:08;7.70;;;7.40;;
6386;SDS011;3226;42.162;24.756;2022-11-06T12:28:53;7.17;;;6.87;;
6386;SDS011;3226;42.162;24.756;2022-11-06T12:31:33;11.98;;;11.48;;
6386;SDS011;3226;42.162;24.756;2022-11-06T12:34:06;9.33;;;8.90;;
6386;SDS011;3226;42.162;24.756;2022-11-06T12:36:48;8.27;;;7.90;;
6386;SDS011;3226;42.162;24.756;2022-11-06T12:39:28;8.37;;;7.97;;
6386;SDS011;3226;42.162;24.756;2022-11-06T12:42:01;7.33;;;7.03;;
6386;SDS011;3226;42.162;24.756;2022-11-06T12:44:31;8.87;;;8.47;;
6386;SDS011;3226;42.162;24.756;2022-11-06T12:47:02;8.17;;;7.83;;
6386;SDS011;3226;42.162;24.756;2022-11-06T12:49:49;7.97;;;7.67;;
6386;SDS011;3226;42.162;24.756;2022-11-06T12:52:30;8.50;;;8.10;;
6386;SDS011;3226;42.162;24.756;2022-11-06T12:55:17;8.37;;;8.00;;
6386;SDS011;3226;42.162;24.756;2022-11-06T12:58:02;9.73;;;9.33;;
6386;SDS011;3226;42.162;24.756;2022-11-06T13:00:49;9.67;;;9.27;;
6386;SDS011;3226;42.162;24.756;2022-11-06T13:03:34;9.97;;;9.57;;
6386;SDS011;3226;42.162;24.756;2022-11-06T13:06:13;11.53;;;10.97;;
6386;SDS011;3226;42.162;24.756;2022-11-06T13:08:46;11.00;;;10.50;;
6386;SDS011;3226;42.162;24.756;2022-11-06T13:11:23;9.53;;;9.13;;
6386;SDS011;3226;42.162;24.756;2022-11-06T13:14:06;10.97;;;10.47;;
6386;SDS011;3226;42.162;24.756;2022-11-06T13:16:44;11.27;;;10.77;;
6386;SDS011;3226;42.162;24.756;2022-11-06T13:19:23;9.23;;;8.83;;
6386;SDS011;3226;42.162;24.756;2022-11-06T13:22:03;10.77;;;10.27;;
6386;SDS011;3226;42.162;24.756;2022-11-06T13:24:39;11.60;;;11.10;;
6386;SDS011;3226;42.162;24.756;2022-11-06T13:27:13;11.20;;;10.70;;
6386;SDS011;3226;42.162;24.756;2022-11-06T13:29:48;8.60;;;8.20;;
6386;SDS011;3226;42.162;24.756;2022-11-06T13:32:18;10.40;;;9.90;;
6386;SDS011;3226;42.162;24.756;2022-11-06T13:34:52;9.83;;;9.43;;
6386;SDS011;3226;42.162;24.756;2022-11-06T13:37:29;11.17;;;10.67;;
6386;SDS011;3226;42.162;24.756;2022-11-06T13:40:05;9.90;;;9.47;;
6386;SDS011;3226;42.162;24.756;2022-11-06T13:42:45;8.03;;;7.73;;
6386;SDS011;3226;42.162;24.756;2022-11-06T13:45:17;6.67;;;6.37;;
6386;SDS011;3226;42.162;24.756;2022-11-06T13:47:51;8.40;;;8.00;;
6386;SDS011;3226;42.162;24.756;2022-11-06T13:50:29;11.38;;;10.88;;
6386;SDS011;3226;42.162;24.756;2022-11-06T13:53:03;9.63;;;9.20;;
6386;SDS011;3226;42.162;24.756;2022-11-06T13:55:44;11.93;;;11.43;;
6386;SDS011;3226;42.162;24.756;2022-11-06T13:58:32;14.27;;;13.63;;
6386;SDS011;3226;42.162;24.756;2022-11-06T14:01:17;11.60;;;11.10;;
6386;SDS011;3226;42.162;24.756;2022-11-06T14:04:13;11.27;;;10.77;;
6386;SDS011;3226;42.162;24.756;2022-11-06T14:06:56;11.03;;;10.53;;
6386;SDS011;3226;42.162;24.756;2022-11-06T14:09:26;11.83;;;11.33;;
6386;SDS011;3226;42.162;24.756;2022-11-06T14:11:59;12.20;;;11.70;;
6386;SDS011;3226;42.162;24.756;2022-11-06T14:14:30;11.53;;;11.03;;
6386;SDS011;3226;42.162;24.756;2022-11-06T14:17:09;11.23;;;10.73;;
6386;SDS011;3226;42.162;24.756;2022-11-06T14:19:39;10.80;;;10.30;;
6386;SDS011;3226;42.162;24.756;2022-11-06T14:22:22;9.07;;;8.67;;
6386;SDS011;3226;42.162;24.756;2022-11-06T14:24:52;10.80;;;10.30;;
6386;SDS011;3226;42.162;24.756;2022-11-06T14:30:42;12.37;;;11.83;;
6386;SDS011;3226;42.162;24.756;2022-11-06T14:36:30;11.03;;;10.53;;
6386;SDS011;3226;42.162;24.756;2022-11-06T14:39:02;10.27;;;9.83;;
6386;SDS011;3226;42.162;24.756;2022-11-06T14:47:24;10.17;;;9.67;;
6386;SDS011;3226;42.162;24.756;2022-11-06T14:49:56;8.87;;;8.47;;
6386;SDS011;3226;42.162;24.756;2022-11-06T14:52:27;7.40;;;7.10;;
6386;SDS011;3226;42.162;24.756;2022-11-06T14:55:06;7.57;;;7.27;;
6386;SDS011;3226;42.162;24.756;2022-11-06T14:57:42;8.13;;;7.83;;
6386;SDS011;3226;42.162;24.756;2022-11-06T15:00:13;13.73;;;13.13;;
6386;SDS011;3226;42.162;24.756;2022-11-06T15:02:57;13.13;;;12.53;;
6386;SDS011;3226;42.162;24.756;2022-11-06T15:05:25;8.37;;;8.03;;
6386;SDS011;3226;42.162;24.756;2022-11-06T15:07:55;7.83;;;7.53;;
6386;SDS011;3226;42.162;24.756;2022-11-06T15:10:49;7.47;;;7.17;;
6386;SDS011;3226;42.162;24.756;2022-11-06T15:13:24;9.60;;;9.10;;
6386;SDS011;3226;42.162;24.756;2022-11-06T15:16:01;12.27;;;11.67;;
6386;SDS011;3226;42.162;24.756;2022-11-06T15:18:34;8.77;;;8.38;;
6386;SDS011;3226;42.162;24.756;2022-11-06T15:21:03;14.43;;;13.73;;
6386;SDS011;3226;42.162;24.756;2022-11-06T15:23:38;19.27;;;18.40;;
6386;SDS011;3226;42.162;24.756;2022-11-06T15:26:15;15.20;;;14.50;;
6386;SDS011;3226;42.162;24.756;2022-11-06T15:28:51;13.90;;;13.27;;
6386;SDS011;3226;42.162;24.756;2022-11-06T15:31:43;12.50;;;11.93;;
6386;SDS011;3226;42.162;24.756;2022-11-06T15:34:16;10.13;;;9.73;;
6386;SDS011;3226;42.162;24.756;2022-11-06T15:36:50;7.60;;;7.30;;
6386;SDS011;3226;42.162;24.756;2022-11-06T15:39:31;8.37;;;7.97;;
6386;SDS011;3226;42.162;24.756;2022-11-06T15:42:07;7.50;;;7.20;;
6386;SDS011;3226;42.162;24.756;2022-11-06T15:44:37;12.77;;;12.20;;